Time;durP1;ratioP1;P1;durP2;ratioP2;P2;SDS_P1;SDS_P2;PMS_P1;PMS_P2;Temp;Humidity;BMP_temperature;BMP_pressure;BME280_temperature;BME280_humidity;BME280_pressure;Samples;Min_cycle;Max_cycle;Signal;HPM_P1;HPM_P2
2023/11/30 00:00:27;;;;;;;7.05;2.97;;;3.50;99.90;;;;;;5015370;28;20683;-82
2023/11/30 00:02:52;;;;;;;3.67;3.08;;;3.50;99.90;;;;;;5014488;28;20484;-82
2023/11/30 00:05:18;;;;;;;5.25;3.08;;;3.60;99.90;;;;;;5015474;28;20030;-82
2023/11/30 00:07:43;;;;;;;8.95;3.45;;;3.60;99.90;;;;;;5016549;28;20104;-82
2023/11/30 00:10:09;;;;;;;6.25;3.20;;;3.50;99.90;;;;;;5014351;28;20117;-81
2023/11/30 00:12:35;;;;;;;6.93;3.40;;;3.60;99.90;;;;;;5014391;28;20050;-81
2023/11/30 00:15:00;;;;;;;6.13;2.92;;;3.60;99.90;;;;;;5014518;28;20037;-81
2023/11/30 00:17:26;;;;;;;9.82;3.50;;;3.70;99.90;;;;;;5014446;28;20192;-83
2023/11/30 00:19:52;;;;;;;5.72;3.25;;;3.70;99.90;;;;;;5015850;28;20030;-83
2023/11/30 00:22:18;;;;;;;5.38;2.97;;;3.80;99.90;;;;;;5015473;28;20484;-83
2023/11/30 00:24:44;;;;;;;10.20;3.13;;;3.70;99.90;;;;;;5014543;28;20073;-83
2023/11/30 00:27:10;;;;;;;6.20;3.40;;;3.60;99.90;;;;;;5011394;28;20120;-82
2023/11/30 00:29:35;;;;;;;8.10;3.70;;;3.50;99.90;;;;;;5014827;28;20084;-83
2023/11/30 00:32:01;;;;;;;7.82;3.65;;;3.50;99.90;;;;;;5014981;28;20029;-83
2023/11/30 00:34:27;;;;;;;7.05;3.92;;;3.50;99.90;;;;;;5015559;28;20029;-83
2023/11/30 00:36:52;;;;;;;9.75;3.92;;;3.50;99.90;;;;;;5015741;28;20113;-83
2023/11/30 00:39:18;;;;;;;4.05;3.13;;;3.40;99.90;;;;;;5015394;28;20095;-82
2023/11/30 00:41:44;;;;;;;6.15;3.65;;;3.30;99.90;;;;;;5023149;28;20491;-83
2023/11/30 00:44:09;;;;;;;6.00;4.10;;;3.30;99.90;;;;;;5014751;28;20061;-83
2023/11/30 00:46:36;;;;;;;8.18;4.13;;;3.20;99.90;;;;;;5013751;28;20064;-83
2023/11/30 00:49:02;;;;;;;9.52;3.80;;;3.20;99.90;;;;;;5013044;28;20030;-83
2023/11/30 00:51:29;;;;;;;5.15;3.60;;;3.20;99.90;;;;;;5013670;28;20033;-84
2023/11/30 00:53:56;;;;;;;12.35;3.00;;;3.20;99.90;;;;;;5011268;28;20026;-83
2023/11/30 00:56:21;;;;;;;6.93;3.80;;;3.30;99.90;;;;;;5014292;28;20034;-82
2023/11/30 00:58:47;;;;;;;5.10;3.25;;;3.10;99.90;;;;;;5013728;28;20033;-83
2023/11/30 01:01:13;;;;;;;5.55;3.17;;;3.10;99.90;;;;;;5013450;28;20034;-82
2023/11/30 01:03:38;;;;;;;5.82;3.65;;;3.10;99.90;;;;;;5012806;28;20369;-83
2023/11/30 01:06:04;;;;;;;7.88;3.83;;;3.20;99.90;;;;;;5002510;28;20036;-82
2023/11/30 01:08:31;;;;;;;6.88;3.53;;;3.20;99.90;;;;;;5014785;28;20025;-82
2023/11/30 01:10:57;;;;;;;7.85;4.13;;;3.30;99.90;;;;;;5013639;28;20029;-82
2023/11/30 01:13:23;;;;;;;8.02;3.47;;;3.30;99.90;;;;;;5014157;28;20033;-82
2023/11/30 01:15:48;;;;;;;5.75;3.03;;;3.30;99.90;;;;;;5014241;28;20480;-82
2023/11/30 01:18:14;;;;;;;7.13;4.18;;;3.30;99.90;;;;;;5013160;28;20100;-82
2023/11/30 01:20:40;;;;;;;9.32;4.13;;;3.30;99.90;;;;;;5013333;28;20122;-82
2023/11/30 01:23:05;;;;;;;6.32;3.55;;;3.30;99.90;;;;;;5014522;28;20034;-82
2023/11/30 01:25:31;;;;;;;6.70;3.28;;;3.30;99.90;;;;;;5013412;28;20580;-82
2023/11/30 01:27:58;;;;;;;4.57;3.55;;;3.30;99.90;;;;;;5012892;28;20030;-81
2023/11/30 01:30:24;;;;;;;4.77;2.33;;;3.30;99.90;;;;;;5014372;28;20088;-82
2023/11/30 01:32:50;;;;;;;9.05;3.47;;;3.40;99.90;;;;;;5011598;28;21820;-81
2023/11/30 01:35:17;;;;;;;8.05;3.42;;;3.40;99.90;;;;;;5004838;28;20022;-83
2023/11/30 01:37:42;;;;;;;5.25;3.22;;;3.40;99.90;;;;;;5006050;28;20042;-82
2023/11/30 01:40:09;;;;;;;12.30;4.32;;;3.40;99.90;;;;;;5014103;28;20463;-81
2023/11/30 01:42:36;;;;;;;7.45;3.15;;;3.40;99.90;;;;;;5013923;28;20030;-82
2023/11/30 01:45:03;;;;;;;10.23;3.70;;;3.40;99.90;;;;;;5009978;28;20026;-81
2023/11/30 01:47:30;;;;;;;5.10;3.63;;;3.40;99.90;;;;;;5011895;28;20076;-81
2023/11/30 01:49:56;;;;;;;4.65;3.28;;;3.40;99.90;;;;;;5013428;28;20038;-81
2023/11/30 01:52:23;;;;;;;9.07;3.63;;;3.40;99.90;;;;;;5009061;28;20053;-82
2023/11/30 01:54:48;;;;;;;8.18;4.20;;;3.40;99.90;;;;;;4998221;28;20391;-82
2023/11/30 01:57:14;;;;;;;7.20;4.85;;;3.40;99.90;;;;;;5008931;28;20030;-82
2023/11/30 01:59:41;;;;;;;7.55;4.22;;;3.40;99.90;;;;;;5011813;28;20022;-82
2023/11/30 02:02:07;;;;;;;9.95;4.80;;;3.40;99.90;;;;;;5004700;28;20389;-82
2023/11/30 02:04:34;;;;;;;9.65;4.07;;;3.30;99.90;;;;;;4993986;28;20096;-82
2023/11/30 02:07:00;;;;;;;7.38;4.10;;;3.20;99.90;;;;;;5002092;28;20518;-83
2023/11/30 02:09:26;;;;;;;8.30;3.35;;;3.20;99.90;;;;;;4991618;28;20034;-82
2023/11/30 02:11:51;;;;;;;5.75;3.45;;;3.10;99.90;;;;;;4991165;28;20053;-84
2023/11/30 02:14:18;;;;;;;6.95;4.55;;;3.20;99.90;;;;;;5011470;28;20113;-84
2023/11/30 02:16:43;;;;;;;6.40;4.03;;;3.10;99.90;;;;;;4992591;28;20049;-83
2023/11/30 02:19:09;;;;;;;4.63;3.35;;;3.10;99.90;;;;;;5011637;28;20030;-85
2023/11/30 02:21:35;;;;;;;7.70;3.38;;;3.00;99.90;;;;;;5011439;28;20100;-84
2023/11/30 02:24:01;;;;;;;6.00;3.83;;;2.90;99.90;;;;;;4994885;28;20486;-83
2023/11/30 02:26:27;;;;;;;12.13;3.42;;;3.00;99.90;;;;;;4994449;28;20499;-84
2023/11/30 02:28:53;;;;;;;6.22;3.60;;;3.00;99.90;;;;;;4994844;28;20042;-84
2023/11/30 02:31:19;;;;;;;7.50;4.57;;;3.00;99.90;;;;;;5011713;28;20065;-84
2023/11/30 02:33:44;;;;;;;7.38;5.15;;;3.00;99.90;;;;;;5013350;28;20125;-84
2023/11/30 02:36:12;;;;;;;10.52;4.45;;;2.90;99.90;;;;;;5012572;28;20029;-84
2023/11/30 02:38:37;;;;;;;5.95;4.07;;;2.90;99.90;;;;;;5012803;28;20034;-84
2023/11/30 02:41:07;;;;;;;9.50;4.25;;;2.90;99.90;;;;;;5012147;28;20036;-88
2023/11/30 02:43:33;;;;;;;9.88;5.22;;;2.90;99.90;;;;;;5009552;28;20029;-84
2023/11/30 02:45:59;;;;;;;9.60;4.35;;;2.90;99.90;;;;;;5012496;28;20026;-83
2023/11/30 02:48:24;;;;;;;7.63;4.75;;;2.90;99.90;;;;;;5012525;28;20504;-83
2023/11/30 02:50:50;;;;;;;10.85;4.85;;;2.90;99.90;;;;;;5013640;28;20026;-83
2023/11/30 02:53:16;;;;;;;13.73;5.05;;;3.00;99.90;;;;;;5012498;28;20069;-83
2023/11/30 02:55:42;;;;;;;9.75;5.03;;;3.00;99.90;;;;;;5013466;28;20030;-84
2023/11/30 02:58:07;;;;;;;12.70;5.18;;;3.00;99.90;;;;;;5013755;28;20014;-83
2023/11/30 03:00:33;;;;;;;9.50;5.68;;;3.00;99.90;;;;;;5013589;28;20060;-84
2023/11/30 03:02:59;;;;;;;9.82;6.07;;;3.00;99.90;;;;;;5013715;28;20038;-84
2023/11/30 03:05:24;;;;;;;11.98;6.65;;;3.00;99.90;;;;;;5013897;28;20030;-84
2023/11/30 03:07:51;;;;;;;14.52;7.28;;;3.00;99.90;;;;;;5014266;28;20416;-85
2023/11/30 03:10:18;;;;;;;14.15;7.45;;;3.00;99.90;;;;;;5016344;28;20113;-84
2023/11/30 03:12:44;;;;;;;13.40;6.03;;;3.10;99.90;;;;;;5016568;28;20176;-85
2023/11/30 03:15:12;;;;;;;18.23;7.00;;;3.10;99.90;;;;;;5015994;28;20068;-86
2023/11/30 03:17:38;;;;;;;17.20;7.65;;;3.10;99.90;;;;;;5017128;28;20029;-84
2023/11/30 03:20:04;;;;;;;17.33;7.43;;;3.00;99.90;;;;;;5016197;28;20038;-84
2023/11/30 03:22:30;;;;;;;16.15;7.75;;;3.00;99.90;;;;;;5017320;28;20034;-83
2023/11/30 03:24:56;;;;;;;15.30;7.47;;;3.00;99.90;;;;;;5016098;28;20581;-85
2023/11/30 03:27:21;;;;;;;18.90;8.20;;;2.90;99.90;;;;;;5015654;28;20018;-84
2023/11/30 03:29:47;;;;;;;17.58;7.90;;;2.90;99.90;;;;;;5002524;28;20026;-86
2023/11/30 03:32:13;;;;;;;14.70;7.35;;;2.90;99.90;;;;;;5016834;28;20025;-84
2023/11/30 03:34:39;;;;;;;20.02;8.45;;;2.70;99.90;;;;;;5017130;28;20424;-84
2023/11/30 03:37:04;;;;;;;17.25;7.72;;;2.60;99.90;;;;;;5015867;28;20416;-83
2023/11/30 03:39:30;;;;;;;18.10;7.65;;;2.70;99.90;;;;;;5017731;28;20083;-83
2023/11/30 03:41:56;;;;;;;14.48;7.18;;;2.70;99.90;;;;;;5017141;28;20112;-83
2023/11/30 03:44:21;;;;;;;19.50;7.38;;;2.80;99.90;;;;;;5016427;28;20044;-83
2023/11/30 03:46:47;;;;;;;17.60;9.57;;;3.00;99.90;;;;;;5017022;28;20037;-84
2023/11/30 03:49:13;;;;;;;19.50;8.63;;;3.00;99.90;;;;;;5016714;28;20081;-85
2023/11/30 03:51:38;;;;;;;17.55;8.02;;;3.00;99.90;;;;;;5016581;28;20053;-84
2023/11/30 03:54:04;;;;;;;15.65;7.75;;;2.90;99.90;;;;;;5015482;28;20019;-84
2023/11/30 03:56:33;;;;;;;17.23;7.18;;;2.90;99.90;;;;;;5015261;28;20026;-84
2023/11/30 03:58:58;;;;;;;17.80;7.85;;;2.80;99.90;;;;;;5005532;28;20065;-85
2023/11/30 04:01:24;;;;;;;17.13;7.68;;;2.70;99.90;;;;;;4995239;28;20065;-84
2023/11/30 04:03:50;;;;;;;18.20;8.25;;;2.60;99.90;;;;;;5015856;28;20033;-84
2023/11/30 04:06:20;;;;;;;11.68;6.60;;;2.60;99.90;;;;;;5016068;28;20030;-84
2023/11/30 04:08:45;;;;;;;18.92;7.63;;;2.60;99.90;;;;;;5014515;28;20034;-84
2023/11/30 04:11:17;;;;;;;19.17;8.00;;;2.60;99.90;;;;;;5014425;28;20137;-84
2023/11/30 04:13:45;;;;;;;12.00;6.85;;;2.60;99.90;;;;;;5013094;28;20121;-84
2023/11/30 04:16:13;;;;;;;16.08;8.10;;;2.60;99.90;;;;;;5014882;28;20037;-84
2023/11/30 04:18:39;;;;;;;17.63;7.50;;;2.70;99.90;;;;;;5014324;28;20022;-84
2023/11/30 04:21:05;;;;;;;19.48;6.97;;;2.70;99.90;;;;;;5014438;28;20492;-84
2023/11/30 04:23:31;;;;;;;19.60;8.00;;;2.70;99.90;;;;;;5014487;28;20024;-84
2023/11/30 04:25:57;;;;;;;20.00;8.90;;;2.70;99.90;;;;;;5014603;28;20030;-84
2023/11/30 04:28:22;;;;;;;15.82;7.88;;;2.60;99.90;;;;;;5014186;28;20037;-84
2023/11/30 04:30:48;;;;;;;16.38;8.52;;;2.60;99.90;;;;;;5014567;28;20033;-83
2023/11/30 04:33:14;;;;;;;16.92;7.20;;;2.60;99.90;;;;;;5014361;28;20044;-84
2023/11/30 04:35:39;;;;;;;16.13;8.15;;;2.60;99.90;;;;;;5012939;28;20022;-83
2023/11/30 04:38:05;;;;;;;14.40;6.85;;;2.60;99.90;;;;;;5014539;28;20026;-84
2023/11/30 04:40:31;;;;;;;15.18;7.28;;;2.60;99.90;;;;;;5014448;28;20028;-84
2023/11/30 04:42:56;;;;;;;30.55;8.27;;;2.50;99.90;;;;;;5013078;28;20041;-83
2023/11/30 04:45:22;;;;;;;16.02;6.75;;;2.40;99.90;;;;;;5013224;28;20033;-83
2023/11/30 04:47:48;;;;;;;13.45;6.43;;;2.40;99.90;;;;;;5013213;28;20030;-83
2023/11/30 04:50:14;;;;;;;12.30;6.72;;;2.40;99.90;;;;;;5014261;28;20052;-84
2023/11/30 04:52:40;;;;;;;16.25;6.50;;;2.40;99.90;;;;;;5013124;28;20022;-83
2023/11/30 04:55:06;;;;;;;18.75;8.00;;;2.40;99.90;;;;;;5014056;28;20439;-83
2023/11/30 04:57:33;;;;;;;15.20;7.03;;;2.30;99.90;;;;;;5012718;28;20052;-83
2023/11/30 04:59:59;;;;;;;15.32;7.68;;;2.30;99.90;;;;;;5013080;28;20484;-83
2023/11/30 05:02:26;;;;;;;16.05;6.93;;;2.30;99.90;;;;;;5007728;28;20041;-83
2023/11/30 05:04:52;;;;;;;14.93;6.57;;;2.30;99.90;;;;;;5006879;28;20084;-83
2023/11/30 05:07:19;;;;;;;14.07;7.15;;;2.30;99.90;;;;;;5012519;28;20133;-83
2023/11/30 05:09:45;;;;;;;11.23;6.43;;;2.30;99.90;;;;;;5013883;28;20079;-84
2023/11/30 05:12:11;;;;;;;12.40;6.25;;;2.30;99.90;;;;;;4895055;28;3436763;-85
2023/11/30 05:14:36;;;;;;;11.68;6.78;;;2.30;99.90;;;;;;5014846;28;20075;-83
2023/11/30 05:17:02;;;;;;;11.10;5.97;;;2.30;99.90;;;;;;5014794;28;20056;-84
2023/11/30 05:19:28;;;;;;;12.90;5.75;;;2.40;99.90;;;;;;5014645;28;20030;-82
2023/11/30 05:21:55;;;;;;;16.58;6.75;;;2.40;99.90;;;;;;5013480;28;20029;-84
2023/11/30 05:24:21;;;;;;;11.15;6.03;;;2.40;99.90;;;;;;5013442;28;20026;-83
2023/11/30 05:26:46;;;;;;;14.00;6.70;;;2.50;99.90;;;;;;5014424;28;20140;-83
2023/11/30 05:29:13;;;;;;;11.13;5.70;;;2.60;99.90;;;;;;5014299;28;20116;-83
2023/11/30 05:31:39;;;;;;;20.67;7.13;;;2.60;99.90;;;;;;5012336;28;20033;-83
2023/11/30 05:34:05;;;;;;;13.20;6.65;;;2.40;99.90;;;;;;5013280;28;20476;-84
2023/11/30 05:36:31;;;;;;;9.57;5.63;;;2.40;99.90;;;;;;5012603;28;20072;-84
2023/11/30 05:38:56;;;;;;;12.40;6.10;;;2.40;99.90;;;;;;5013344;28;20030;-84
2023/11/30 05:41:22;;;;;;;12.65;5.85;;;2.50;99.90;;;;;;5013453;28;20335;-83
2023/11/30 05:43:48;;;;;;;10.57;6.20;;;2.60;99.90;;;;;;5014170;28;20025;-84
2023/11/30 05:46:13;;;;;;;15.88;6.68;;;2.70;99.90;;;;;;5013487;28;20032;-84
2023/11/30 05:48:39;;;;;;;11.55;6.20;;;2.60;99.90;;;;;;5013218;28;20108;-84
2023/11/30 05:51:05;;;;;;;16.13;6.85;;;2.40;99.90;;;;;;5014173;28;20056;-84
2023/11/30 05:53:31;;;;;;;15.75;6.97;;;2.40;99.90;;;;;;5012717;28;20392;-84
2023/11/30 05:55:56;;;;;;;13.60;5.50;;;2.40;99.90;;;;;;5014127;28;20057;-83
2023/11/30 05:58:22;;;;;;;10.02;5.38;;;2.30;99.90;;;;;;5013095;28;20025;-83
2023/11/30 06:00:48;;;;;;;9.77;5.32;;;2.40;99.90;;;;;;5011384;28;20033;-83
2023/11/30 06:03:13;;;;;;;8.95;5.43;;;2.40;99.90;;;;;;5013801;28;20034;-84
2023/11/30 06:05:39;;;;;;;12.15;5.63;;;2.40;99.90;;;;;;5013513;28;20073;-84
2023/11/30 06:08:05;;;;;;;9.50;5.90;;;2.30;99.90;;;;;;5013836;28;20022;-84
2023/11/30 06:10:30;;;;;;;13.88;6.32;;;2.20;99.90;;;;;;5013654;28;20494;-84
2023/11/30 06:12:56;;;;;;;14.70;6.78;;;2.20;99.90;;;;;;5011094;28;20060;-84
2023/11/30 06:15:22;;;;;;;11.23;6.20;;;2.20;99.90;;;;;;5013538;28;20448;-84
2023/11/30 06:17:47;;;;;;;9.10;5.68;;;2.20;99.90;;;;;;5013813;28;20084;-84
2023/11/30 06:20:13;;;;;;;15.50;6.57;;;2.30;99.90;;;;;;5012258;28;20029;-84
2023/11/30 06:22:39;;;;;;;8.73;5.18;;;2.30;99.90;;;;;;5013215;28;20077;-84
2023/11/30 06:25:06;;;;;;;17.02;6.32;;;2.30;99.90;;;;;;5012791;28;20042;-83
2023/11/30 06:27:31;;;;;;;8.85;5.60;;;2.30;99.90;;;;;;5011800;28;20034;-84
2023/11/30 06:29:57;;;;;;;11.52;5.97;;;2.40;99.90;;;;;;5012734;28;20030;-84
2023/11/30 06:32:23;;;;;;;8.23;5.10;;;2.40;99.90;;;;;;5012485;28;20026;-83
2023/11/30 06:34:48;;;;;;;12.05;4.97;;;2.40;99.90;;;;;;5012295;28;20026;-83
2023/11/30 06:37:14;;;;;;;9.48;5.03;;;2.40;99.90;;;;;;5011769;28;20036;-85
2023/11/30 06:39:43;;;;;;;13.48;6.13;;;2.40;99.90;;;;;;5011887;28;20087;-84
2023/11/30 06:42:09;;;;;;;15.50;7.20;;;2.40;99.90;;;;;;5013183;28;20037;-84
2023/11/30 06:44:36;;;;;;;13.20;6.40;;;2.40;99.90;;;;;;4999596;28;20034;-85
2023/11/30 06:47:02;;;;;;;11.00;5.25;;;2.40;99.90;;;;;;5009327;28;20129;-85
2023/11/30 06:49:28;;;;;;;11.68;6.28;;;2.40;99.90;;;;;;5011606;28;20683;-85
2023/11/30 06:51:53;;;;;;;9.30;5.10;;;2.40;99.90;;;;;;5011841;28;20049;-86
2023/11/30 06:54:22;;;;;;;10.85;6.30;;;2.50;99.90;;;;;;5012724;28;20029;-84
2023/11/30 06:56:48;;;;;;;13.93;5.78;;;2.60;99.90;;;;;;5012276;28;20030;-83
2023/11/30 06:59:13;;;;;;;13.43;6.68;;;2.60;99.90;;;;;;5012632;28;20076;-84
2023/11/30 07:01:39;;;;;;;13.32;7.07;;;2.70;99.90;;;;;;5011987;28;20116;-84
2023/11/30 07:04:05;;;;;;;18.75;8.25;;;2.60;99.90;;;;;;5011725;28;20025;-83
2023/11/30 07:06:31;;;;;;;15.05;7.45;;;2.50;99.90;;;;;;5009047;28;20076;-83
2023/11/30 07:08:56;;;;;;;15.68;6.50;;;2.50;99.90;;;;;;5013179;28;20046;-83
2023/11/30 07:11:22;;;;;;;10.65;5.80;;;2.40;99.90;;;;;;5012475;28;20048;-83
2023/11/30 07:13:47;;;;;;;16.17;6.53;;;2.40;99.90;;;;;;5013375;28;20030;-84
2023/11/30 07:16:13;;;;;;;13.05;6.93;;;2.40;99.90;;;;;;5011749;28;20029;-84
2023/11/30 07:18:39;;;;;;;18.95;7.55;;;2.40;99.90;;;;;;5011811;28;20428;-84
2023/11/30 07:21:05;;;;;;;11.20;6.28;;;2.30;99.90;;;;;;5012670;28;20037;-83
2023/11/30 07:23:32;;;;;;;21.50;8.13;;;2.20;99.90;;;;;;5012525;28;20033;-83
2023/11/30 07:25:58;;;;;;;13.70;6.88;;;2.20;99.90;;;;;;5012732;28;20037;-83
2023/11/30 07:28:25;;;;;;;15.75;7.45;;;2.20;99.90;;;;;;5011521;28;20504;-83
2023/11/30 07:30:51;;;;;;;12.93;7.00;;;2.20;99.90;;;;;;4997276;28;20030;-83
2023/11/30 07:33:16;;;;;;;11.63;6.47;;;2.20;99.90;;;;;;5013094;28;20373;-83
2023/11/30 07:35:42;;;;;;;12.25;5.88;;;2.30;99.90;;;;;;5012813;28;20382;-83
2023/11/30 07:38:08;;;;;;;12.35;7.55;;;2.30;99.90;;;;;;5012847;28;20388;-84
2023/11/30 07:40:34;;;;;;;12.77;5.88;;;2.30;99.90;;;;;;5012146;28;20038;-84
2023/11/30 07:43:00;;;;;;;17.25;7.13;;;2.40;99.90;;;;;;5011568;28;20144;-83
2023/11/30 07:45:27;;;;;;;19.77;7.15;;;2.50;99.90;;;;;;5011055;28;20512;-82
2023/11/30 07:47:53;;;;;;;14.23;7.60;;;2.60;99.90;;;;;;5011313;28;20037;-83
2023/11/30 07:50:18;;;;;;;17.00;7.18;;;2.40;99.90;;;;;;5011583;28;20029;-83
2023/11/30 07:52:44;;;;;;;20.55;8.00;;;2.20;99.90;;;;;;5012850;28;20058;-84
2023/11/30 07:55:10;;;;;;;18.33;7.55;;;2.00;99.90;;;;;;5013870;28;20025;-83
2023/11/30 07:57:36;;;;;;;14.63;7.93;;;2.00;99.90;;;;;;5030999;28;20030;-83
2023/11/30 08:00:11;;;;;;;20.92;8.25;;;1.90;99.90;;;;;;5014913;28;20030;-85
2023/11/30 08:02:40;;;;;;;19.55;8.43;;;2.00;99.90;;;;;;5015643;28;20030;-83
2023/11/30 08:05:05;;;;;;;16.10;7.95;;;2.10;99.90;;;;;;5016047;28;20026;-84
2023/11/30 08:07:32;;;;;;;20.98;9.30;;;2.10;99.90;;;;;;5014968;28;20026;-84
2023/11/30 08:09:58;;;;;;;20.38;8.15;;;2.20;99.90;;;;;;5014066;28;20569;-84
2023/11/30 08:12:24;;;;;;;20.98;7.93;;;2.30;99.90;;;;;;5015497;28;20054;-84
2023/11/30 08:14:49;;;;;;;19.58;9.80;;;2.40;99.90;;;;;;5015477;28;20022;-84
2023/11/30 08:17:15;;;;;;;16.05;8.48;;;2.50;99.90;;;;;;5014695;28;20084;-84
2023/11/30 08:19:41;;;;;;;24.67;8.63;;;2.50;99.90;;;;;;5015863;28;20034;-83
2023/11/30 08:22:07;;;;;;;17.55;8.10;;;2.50;99.90;;;;;;5014467;28;20032;-84
2023/11/30 08:24:33;;;;;;;24.35;8.93;;;2.60;99.90;;;;;;5013555;28;20121;-83
2023/11/30 08:26:59;;;;;;;21.75;8.30;;;2.50;99.90;;;;;;5015689;28;20377;-84
2023/11/30 08:29:25;;;;;;;14.18;8.32;;;2.50;99.90;;;;;;5013953;28;20029;-84
2023/11/30 08:31:51;;;;;;;20.55;8.73;;;2.40;99.90;;;;;;5014271;28;20030;-82
2023/11/30 08:34:16;;;;;;;19.63;9.02;;;2.50;99.90;;;;;;5014319;28;20131;-84
2023/11/30 08:36:43;;;;;;;15.27;7.97;;;2.50;99.90;;;;;;5013953;28;20026;-84
2023/11/30 08:39:09;;;;;;;21.20;9.23;;;2.50;99.90;;;;;;5014353;28;20377;-84
2023/11/30 08:41:36;;;;;;;17.65;8.45;;;2.50;99.90;;;;;;5014032;28;20022;-84
2023/11/30 08:44:03;;;;;;;17.50;8.63;;;2.40;99.90;;;;;;5014583;28;20049;-84
2023/11/30 08:46:31;;;;;;;26.55;9.52;;;2.30;99.90;;;;;;5027970;28;20468;-82
2023/11/30 08:48:57;;;;;;;18.35;9.48;;;2.30;99.90;;;;;;5013809;28;20112;-83
2023/11/30 08:51:24;;;;;;;18.70;8.55;;;2.20;99.90;;;;;;5030040;28;20172;-83
2023/11/30 08:53:49;;;;;;;15.35;7.93;;;2.10;99.90;;;;;;5015291;28;20068;-83
2023/11/30 08:56:15;;;;;;;21.17;8.63;;;2.10;99.90;;;;;;5013158;28;20554;-82
2023/11/30 08:58:41;;;;;;;20.20;9.93;;;2.10;99.90;;;;;;5012500;28;20361;-83
2023/11/30 09:01:07;;;;;;;27.70;10.38;;;2.20;99.90;;;;;;5011188;28;20025;-83
2023/11/30 09:03:32;;;;;;;20.63;10.45;;;2.30;99.90;;;;;;5014349;28;20036;-83
2023/11/30 09:05:58;;;;;;;23.25;10.55;;;2.20;99.90;;;;;;5012219;28;20124;-82
2023/11/30 09:08:24;;;;;;;22.73;10.77;;;2.20;99.90;;;;;;5013523;28;20080;-85
2023/11/30 09:10:49;;;;;;;20.33;10.10;;;2.10;99.90;;;;;;5013534;28;20026;-80
2023/11/30 09:13:15;;;;;;;40.17;10.50;;;2.10;99.90;;;;;;5014961;28;20484;-84
2023/11/30 09:15:44;;;;;;;56.42;10.68;;;2.10;99.90;;;;;;5014595;28;20029;-83
2023/11/30 09:18:11;;;;;;;18.48;9.15;;;2.00;99.90;;;;;;5013435;28;20028;-85
2023/11/30 09:20:37;;;;;;;32.08;10.43;;;2.00;99.90;;;;;;5013291;28;20084;-84
2023/11/30 09:23:04;;;;;;;38.53;9.80;;;2.10;99.90;;;;;;5006074;28;20543;-84
2023/11/30 09:25:29;;;;;;;20.10;9.45;;;2.10;99.90;;;;;;5001377;28;20492;-86
2023/11/30 09:27:55;;;;;;;24.02;10.90;;;2.20;99.90;;;;;;5014596;28;20029;-87
2023/11/30 09:30:21;;;;;;;24.63;11.25;;;2.30;99.90;;;;;;5013664;28;20037;-86
2023/11/30 09:32:46;;;;;;;26.38;10.57;;;2.30;99.90;;;;;;5012209;28;20109;-83
2023/11/30 09:35:12;;;;;;;22.67;11.25;;;2.30;99.90;;;;;;5014168;28;20041;-83
2023/11/30 09:37:38;;;;;;;24.17;10.70;;;2.40;99.90;;;;;;5012710;28;20022;-83
2023/11/30 09:40:08;;;;;;;21.42;9.93;;;2.40;99.90;;;;;;5012880;28;20452;-83
2023/11/30 09:42:35;;;;;;;27.15;10.38;;;2.40;99.90;;;;;;5013912;28;20022;-85
2023/11/30 09:45:04;;;;;;;27.50;9.65;;;2.50;99.90;;;;;;5012871;28;20029;-83
2023/11/30 09:47:30;;;;;;;33.38;9.98;;;2.50;99.90;;;;;;5016505;28;20030;-89
2023/11/30 09:49:56;;;;;;;17.85;9.13;;;2.40;99.90;;;;;;5004312;28;20509;-81
2023/11/30 09:52:22;;;;;;;41.13;9.85;;;2.30;99.90;;;;;;5009426;28;20014;-81
2023/11/30 09:54:52;;;;;;;31.10;10.52;;;2.30;99.90;;;;;;5006992;28;20049;-81
2023/11/30 09:57:18;;;;;;;24.73;10.18;;;2.30;99.90;;;;;;5011119;28;20080;-82
2023/11/30 09:59:44;;;;;;;21.70;9.50;;;2.30;99.90;;;;;;5010711;28;20037;-84
2023/11/30 10:02:10;;;;;;;18.77;9.38;;;2.50;99.90;;;;;;5011310;28;20018;-86
2023/11/30 10:04:36;;;;;;;43.60;11.02;;;2.60;99.90;;;;;;5010473;28;20038;-85
2023/11/30 10:07:02;;;;;;;21.83;10.90;;;2.80;99.90;;;;;;4997246;28;20030;-83
2023/11/30 10:09:30;;;;;;;28.65;10.77;;;2.80;99.90;;;;;;5002573;28;20108;-83
2023/11/30 10:11:56;;;;;;;23.33;11.15;;;2.90;99.90;;;;;;5012070;28;20500;-85
2023/11/30 10:14:22;;;;;;;21.33;10.82;;;2.80;99.90;;;;;;5010887;28;20480;-84
2023/11/30 10:16:48;;;;;;;28.00;11.93;;;2.90;99.90;;;;;;5011947;28;20415;-83
2023/11/30 10:19:14;;;;;;;23.67;10.50;;;2.80;99.90;;;;;;5011173;28;20045;-84
2023/11/30 10:21:41;;;;;;;27.55;9.93;;;2.70;99.90;;;;;;5010347;28;20432;-84
2023/11/30 10:24:08;;;;;;;25.65;10.48;;;2.80;99.90;;;;;;4998639;28;20390;-83
2023/11/30 10:26:35;;;;;;;23.20;10.57;;;2.80;99.90;;;;;;5009432;28;20026;-84
2023/11/30 10:29:06;;;;;;;21.80;9.90;;;2.80;99.90;;;;;;5005213;28;20031;-81
2023/11/30 10:31:35;;;;;;;21.30;10.73;;;2.80;99.90;;;;;;4998577;28;20804;-83
2023/11/30 10:34:11;;;;;;;24.38;10.90;;;2.80;99.90;;;;;;5011298;28;20587;-81
2023/11/30 10:36:43;;;;;;;23.50;10.13;;;2.80;99.90;;;;;;5010217;28;20034;-84
2023/11/30 10:39:16;;;;;;;28.13;9.20;;;2.90;99.90;;;;;;5010984;28;20128;-86
2023/11/30 10:41:51;;;;;;;30.85;9.40;;;2.80;99.90;;;;;;5013089;28;20036;-84
2023/11/30 10:44:26;;;;;;;20.33;9.50;;;2.70;99.90;;;;;;5010255;28;20037;-86
2023/11/30 10:46:56;;;;;;;22.20;10.07;;;2.70;99.90;;;;;;5012290;28;20392;-84
2023/11/30 10:49:23;;;;;;;25.33;9.98;;;2.80;99.90;;;;;;5012737;28;20034;-83
2023/11/30 10:51:50;;;;;;;20.67;8.67;;;2.80;99.90;;;;;;5013772;28;20018;-83
2023/11/30 10:54:46;;;;;;;23.13;9.80;;;2.80;99.90;;;;;;5013025;28;20036;-84
2023/11/30 10:57:13;;;;;;;23.08;9.32;;;2.80;99.90;;;;;;4995895;28;20280;-84
2023/11/30 10:59:45;;;;;;;21.95;9.77;;;2.70;99.90;;;;;;5012738;28;20037;-85
2023/11/30 11:02:12;;;;;;;26.00;9.95;;;2.60;99.90;;;;;;5006624;28;20408;-88
2023/11/30 11:04:40;;;;;;;16.33;8.80;;;2.60;99.90;;;;;;5010444;28;20029;-84
2023/11/30 11:07:13;;;;;;;21.90;10.02;;;2.60;99.90;;;;;;5009635;28;20037;-84
2023/11/30 11:10:01;;;;;;;21.83;9.60;;;2.60;99.90;;;;;;5004365;28;20018;-81
2023/11/30 11:12:33;;;;;;;26.00;9.00;;;2.60;99.90;;;;;;5008105;28;20124;-82
2023/11/30 11:15:09;;;;;;;22.10;9.65;;;2.50;99.90;;;;;;5009078;28;20033;-82
2023/11/30 11:17:56;;;;;;;42.55;8.95;;;2.60;99.90;;;;;;5008750;28;20116;-82
2023/11/30 11:20:29;;;;;;;25.58;9.98;;;2.50;99.90;;;;;;5005954;28;20037;-82
2023/11/30 11:23:19;;;;;;;19.50;8.50;;;2.50;99.90;;;;;;5010750;28;20025;-81
2023/11/30 11:25:46;;;;;;;20.80;8.68;;;2.60;99.90;;;;;;5011395;28;20022;-82
2023/11/30 11:28:17;;;;;;;28.17;8.70;;;2.60;99.90;;;;;;5011345;28;20543;-82
2023/11/30 11:30:50;;;;;;;14.10;7.57;;;2.70;99.90;;;;;;5016665;28;20626;-83
2023/11/30 11:33:17;;;;;;;15.57;7.70;;;2.70;99.90;;;;;;5016081;28;20041;-82
2023/11/30 11:35:43;;;;;;;20.73;6.07;;;2.80;99.90;;;;;;5015288;28;20080;-81
2023/11/30 11:38:09;;;;;;;16.13;7.22;;;2.70;99.90;;;;;;5015209;28;20265;-84
2023/11/30 11:40:39;;;;;;;39.60;9.52;;;2.60;99.90;;;;;;5015298;28;20088;-81
2023/11/30 11:43:05;;;;;;;34.75;9.38;;;2.70;99.90;;;;;;5014798;28;20037;-82
2023/11/30 11:45:32;;;;;;;19.23;8.50;;;2.60;99.90;;;;;;5015981;28;20030;-82
2023/11/30 11:47:58;;;;;;;19.40;8.52;;;2.60;99.90;;;;;;5014117;28;20491;-82
2023/11/30 11:50:24;;;;;;;18.08;8.45;;;2.60;99.90;;;;;;5014855;28;20033;-82
2023/11/30 11:52:50;;;;;;;24.15;9.55;;;2.70;99.90;;;;;;5015958;28;20034;-83
2023/11/30 11:55:15;;;;;;;20.02;8.80;;;2.70;99.90;;;;;;4995369;28;20010;-82
2023/11/30 11:57:43;;;;;;;20.92;10.52;;;2.90;99.90;;;;;;5007748;28;20018;-82
2023/11/30 12:00:13;;;;;;;26.88;10.82;;;2.90;99.90;;;;;;5016042;28;20033;-82
2023/11/30 12:02:39;;;;;;;21.75;9.38;;;3.00;99.90;;;;;;5014444;28;20353;-82
2023/11/30 12:05:14;;;;;;;31.90;10.75;;;3.00;99.90;;;;;;5015980;28;20048;-83
2023/11/30 12:07:54;;;;;;;25.50;10.40;;;3.00;99.90;;;;;;5014622;28;20030;-82
2023/11/30 12:10:39;;;;;;;23.30;9.27;;;3.00;99.90;;;;;;5016066;28;20030;-82
2023/11/30 12:13:07;;;;;;;26.20;10.13;;;3.10;99.90;;;;;;5014658;28;20523;-83
2023/11/30 12:15:33;;;;;;;27.37;11.33;;;3.00;99.90;;;;;;5014988;28;20122;-82
2023/11/30 12:18:02;;;;;;;25.45;9.85;;;3.10;99.90;;;;;;5013601;28;20352;-82
2023/11/30 12:20:28;;;;;;;37.85;11.32;;;3.20;99.90;;;;;;5015254;28;20030;-82
2023/11/30 12:22:54;;;;;;;23.38;10.23;;;3.30;99.90;;;;;;5014399;28;20025;-82
2023/11/30 12:25:20;;;;;;;32.05;10.45;;;3.40;99.90;;;;;;5015371;28;20484;-82
2023/11/30 12:27:46;;;;;;;36.00;11.73;;;3.30;99.90;;;;;;5014211;28;20392;-82
2023/11/30 12:30:12;;;;;;;35.00;12.63;;;3.40;99.90;;;;;;5015537;28;20029;-82
2023/11/30 12:32:38;;;;;;;35.17;11.50;;;3.30;99.90;;;;;;5013960;28;20025;-82
2023/11/30 12:35:05;;;;;;;33.10;11.45;;;3.40;99.90;;;;;;5013463;28;20026;-82
2023/11/30 12:37:31;;;;;;;24.92;11.38;;;3.30;99.90;;;;;;5014157;28;20040;-82
2023/11/30 12:39:58;;;;;;;31.20;11.63;;;3.40;99.90;;;;;;5014715;28;20480;-82
2023/11/30 12:42:26;;;;;;;28.33;12.07;;;3.40;99.90;;;;;;5014044;28;20028;-82
2023/11/30 12:44:52;;;;;;;27.52;11.77;;;3.40;99.90;;;;;;5013921;28;20406;-82